Time;durP1;ratioP1;P1;durP2;ratioP2;P2;SDS_P1;SDS_P2;PMS_P1;PMS_P2;Temp;Humidity;BMP_temperature;BMP_pressure;BME280_temperature;BME280_humidity;BME280_pressure;Samples;Min_cycle;Max_cycle;Signal;HPM_P1;HPM_P2
2022/03/30 00:01:10;;;;;;;29.00;15.05;;;4.90;99.90;;;;;;5120870;27;20170;-72
2022/03/30 00:03:36;;;;;;;27.13;14.45;;;4.90;99.90;;;;;;5120244;27;20542;-72
2022/03/30 00:06:04;;;;;;;26.17;13.18;;;4.90;99.90;;;;;;5156437;27;20055;-72
2022/03/30 00:08:30;;;;;;;29.80;15.38;;;4.90;99.90;;;;;;5137158;27;20051;-72
2022/03/30 00:10:55;;;;;;;25.67;13.40;;;4.80;99.90;;;;;;5156389;27;20047;-73
2022/03/30 00:13:21;;;;;;;22.00;13.35;;;4.80;99.90;;;;;;5136104;27;20053;-72
2022/03/30 00:15:47;;;;;;;23.38;13.80;;;4.80;99.90;;;;;;5156191;27;20047;-72
2022/03/30 00:18:12;;;;;;;25.95;13.77;;;4.90;99.90;;;;;;5137982;27;20039;-72
2022/03/30 00:20:38;;;;;;;25.75;14.80;;;4.80;99.90;;;;;;5137701;27;20103;-72
2022/03/30 00:23:03;;;;;;;26.95;14.80;;;4.80;99.90;;;;;;5156465;27;20074;-72
2022/03/30 00:25:29;;;;;;;23.05;14.45;;;4.80;99.90;;;;;;5156406;27;20138;-72
2022/03/30 00:27:55;;;;;;;25.83;14.35;;;4.80;99.90;;;;;;5156041;27;20114;-72
2022/03/30 00:30:20;;;;;;;29.58;14.80;;;4.80;99.90;;;;;;5146023;27;20042;-72
2022/03/30 00:32:46;;;;;;;29.25;15.07;;;4.80;99.90;;;;;;5116827;27;20050;-72
2022/03/30 00:35:12;;;;;;;22.55;14.20;;;4.80;99.90;;;;;;5117193;27;20039;-72
2022/03/30 00:37:38;;;;;;;26.20;14.38;;;4.80;99.90;;;;;;5137517;27;20117;-72
2022/03/30 00:40:04;;;;;;;24.58;14.15;;;4.80;99.90;;;;;;5137534;27;20501;-72
2022/03/30 00:42:30;;;;;;;29.77;14.30;;;4.90;99.90;;;;;;5137897;27;20053;-72
2022/03/30 00:44:56;;;;;;;22.75;14.02;;;4.90;99.90;;;;;;5155892;27;20042;-72
2022/03/30 00:47:26;;;;;;;25.02;14.10;;;4.90;99.90;;;;;;5136728;27;20119;-72
2022/03/30 00:49:52;;;;;;;;;;;4.90;99.90;;;;;;5156015;27;20035;-72
2022/03/30 00:52:18;;;;;;;31.30;16.00;;;4.90;99.90;;;;;;5137376;27;19919;-72
2022/03/30 00:54:48;;;;;;;28.23;16.27;;;4.90;99.90;;;;;;5136978;27;20049;-72
2022/03/30 00:57:14;;;;;;;;;;;5.00;99.90;;;;;;5156290;27;20118;-72
2022/03/30 00:59:40;;;;;;;33.78;17.13;;;5.00;99.90;;;;;;5120413;27;20023;-72
2022/03/30 01:02:06;;;;;;;28.83;16.98;;;5.00;99.90;;;;;;5136160;27;20047;-72
2022/03/30 01:04:32;;;;;;;27.33;15.23;;;5.10;99.90;;;;;;5090314;27;20054;-72
2022/03/30 01:06:58;;;;;;;26.23;13.93;;;5.20;99.90;;;;;;5130445;27;20510;-72
2022/03/30 01:09:24;;;;;;;22.20;13.40;;;5.10;99.90;;;;;;5137062;27;20070;-72
2022/03/30 01:11:51;;;;;;;24.40;13.90;;;5.20;99.90;;;;;;5116249;27;20118;-72
2022/03/30 01:14:17;;;;;;;26.50;15.65;;;5.30;99.90;;;;;;5121932;27;20047;-72
2022/03/30 01:16:42;;;;;;;29.42;15.85;;;5.30;99.90;;;;;;5147218;27;20053;-72
2022/03/30 01:19:09;;;;;;;29.08;16.58;;;5.40;99.90;;;;;;5153698;27;20051;-72
2022/03/30 01:21:39;;;;;;;32.25;17.02;;;5.30;99.90;;;;;;5136028;27;20095;-72
2022/03/30 01:24:05;;;;;;;31.13;16.08;;;5.40;99.90;;;;;;5154855;27;20561;-72
2022/03/30 01:26:31;;;;;;;31.75;16.38;;;5.40;99.90;;;;;;5155426;27;20054;-73
2022/03/30 01:28:56;;;;;;;27.75;16.20;;;5.40;99.90;;;;;;5136282;27;20038;-72
2022/03/30 01:34:07;;;;;;;27.25;15.20;;;5.50;99.90;;;;;;5154624;27;20061;-72
2022/03/30 01:36:35;;;;;;;29.30;15.00;;;5.60;99.90;;;;;;5131891;27;20114;-72
2022/03/30 01:39:02;;;;;;;28.35;15.95;;;5.60;99.90;;;;;;5149063;27;20046;-72
2022/03/30 01:41:29;;;;;;;25.38;14.77;;;5.60;99.90;;;;;;5155019;27;20406;-72
2022/03/30 01:43:55;;;;;;;25.85;15.85;;;5.60;99.90;;;;;;5154145;27;20502;-72
2022/03/30 01:46:20;;;;;;;29.48;15.65;;;5.60;99.90;;;;;;5154899;27;20422;-72
2022/03/30 01:48:46;;;;;;;30.95;16.33;;;5.60;99.90;;;;;;5154472;27;20049;-72
2022/03/30 01:51:12;;;;;;;25.85;15.48;;;5.70;99.90;;;;;;5154230;27;20034;-72
2022/03/30 01:53:37;;;;;;;26.80;15.75;;;5.60;99.90;;;;;;5152309;27;20066;-72
2022/03/30 01:56:03;;;;;;;29.80;15.60;;;5.70;99.90;;;;;;5154269;27;20363;-72
2022/03/30 01:58:30;;;;;;;26.55;15.95;;;5.70;99.90;;;;;;5154311;27;20077;-72
2022/03/30 02:00:57;;;;;;;29.73;15.43;;;5.70;99.90;;;;;;5154124;27;20090;-72
2022/03/30 02:03:23;;;;;;;28.58;15.20;;;5.70;99.90;;;;;;5154441;27;20111;-72
2022/03/30 02:05:49;;;;;;;31.77;15.63;;;5.70;99.90;;;;;;5148852;27;20490;-73
2022/03/30 02:08:14;;;;;;;26.27;15.45;;;5.80;99.90;;;;;;5146962;27;20077;-72
2022/03/30 02:10:40;;;;;;;26.02;14.38;;;5.80;99.90;;;;;;5148805;27;20103;-72
2022/03/30 02:13:06;;;;;;;27.60;15.20;;;5.80;99.90;;;;;;5130218;27;20126;-73
2022/03/30 02:15:32;;;;;;;30.23;15.00;;;5.80;99.90;;;;;;5153889;27;20451;-72
2022/03/30 02:17:59;;;;;;;25.45;14.30;;;5.80;99.90;;;;;;5153525;27;20085;-72
2022/03/30 02:20:24;;;;;;;26.92;15.75;;;5.90;99.90;;;;;;5153875;27;20043;-72
2022/03/30 02:22:50;;;;;;;26.15;15.07;;;5.90;99.90;;;;;;5135484;27;20509;-72
2022/03/30 02:25:15;;;;;;;30.75;15.32;;;5.90;99.90;;;;;;5131084;27;20042;-72
2022/03/30 02:27:41;;;;;;;29.88;15.63;;;5.90;99.90;;;;;;5151732;27;20456;-72
2022/03/30 02:30:08;;;;;;;25.00;16.00;;;5.90;99.90;;;;;;5134649;27;20046;-72
2022/03/30 02:32:36;;;;;;;29.17;16.20;;;5.90;99.90;;;;;;5117957;27;20063;-72
2022/03/30 02:35:05;;;;;;;27.17;15.55;;;5.90;99.90;;;;;;5153210;27;20398;-72
2022/03/30 02:37:30;;;;;;;26.77;15.75;;;5.90;99.90;;;;;;5153883;27;20121;-73
2022/03/30 02:39:56;;;;;;;31.65;15.80;;;5.90;99.90;;;;;;5153674;27;20114;-72
2022/03/30 02:42:22;;;;;;;32.00;16.23;;;5.80;99.90;;;;;;5154023;27;20486;-72
2022/03/30 02:44:48;;;;;;;31.65;15.43;;;5.90;99.90;;;;;;5147549;27;20050;-72
2022/03/30 02:47:13;;;;;;;29.00;15.57;;;5.90;99.90;;;;;;5149819;27;20043;-72
2022/03/30 02:49:39;;;;;;;23.55;15.25;;;5.90;99.90;;;;;;5153947;27;20035;-72
2022/03/30 02:52:05;;;;;;;30.02;15.90;;;5.80;99.90;;;;;;5153613;27;20436;-72
2022/03/30 02:54:31;;;;;;;28.48;15.60;;;5.90;99.90;;;;;;5153832;27;20406;-72
2022/03/30 02:56:57;;;;;;;26.20;14.23;;;5.90;99.90;;;;;;5134970;27;20074;-72
2022/03/30 02:59:22;;;;;;;32.83;16.00;;;5.90;99.90;;;;;;5153546;27;20051;-72
2022/03/30 03:01:48;;;;;;;30.67;15.55;;;5.90;99.90;;;;;;5152172;27;20118;-72
2022/03/30 03:04:14;;;;;;;28.65;14.93;;;5.90;99.90;;;;;;5134999;27;20420;-73
2022/03/30 03:06:40;;;;;;;26.70;14.95;;;5.90;99.90;;;;;;5135494;27;20057;-72
2022/03/30 03:09:06;;;;;;;26.17;14.70;;;6.00;99.90;;;;;;5135009;27;20049;-72
2022/03/30 03:11:32;;;;;;;31.52;14.85;;;5.90;99.90;;;;;;5148683;27;20039;-72
2022/03/30 03:13:58;;;;;;;26.23;14.95;;;5.90;99.90;;;;;;5149951;27;20100;-77
2022/03/30 03:16:23;;;;;;;23.33;14.05;;;5.90;99.90;;;;;;5153321;27;20458;-72
2022/03/30 03:18:49;;;;;;;31.75;14.63;;;5.90;99.90;;;;;;5146538;27;20399;-72
2022/03/30 03:21:15;;;;;;;32.50;14.05;;;5.90;99.90;;;;;;5149298;27;20387;-72
2022/03/30 03:23:41;;;;;;;24.17;12.73;;;6.00;99.90;;;;;;5134932;27;20371;-72
2022/03/30 03:26:07;;;;;;;25.58;13.68;;;6.10;99.90;;;;;;5152961;27;20056;-72
2022/03/30 03:28:32;;;;;;;26.83;13.45;;;6.00;99.90;;;;;;5153245;27;20467;-72
2022/03/30 03:30:58;;;;;;;25.02;13.88;;;6.00;99.90;;;;;;5152955;27;20086;-72
2022/03/30 03:33:23;;;;;;;26.15;12.88;;;6.00;99.90;;;;;;5152947;27;20046;-72
2022/03/30 03:35:49;;;;;;;25.85;12.73;;;6.00;99.90;;;;;;5152537;27;20050;-72
2022/03/30 03:38:15;;;;;;;28.02;12.93;;;6.00;99.90;;;;;;5152611;27;20077;-72
2022/03/30 03:40:41;;;;;;;32.30;13.50;;;6.10;99.90;;;;;;5133689;27;20046;-72
2022/03/30 03:43:06;;;;;;;26.85;13.65;;;6.00;99.90;;;;;;5149221;27;20043;-73
2022/03/30 03:45:32;;;;;;;24.50;13.63;;;6.00;99.90;;;;;;5157117;27;20046;-72
2022/03/30 03:47:58;;;;;;;26.90;13.80;;;6.00;99.90;;;;;;5138439;27;20031;-72
2022/03/30 03:50:23;;;;;;;25.48;13.05;;;6.00;99.90;;;;;;5156801;27;20039;-72
2022/03/30 03:52:49;;;;;;;22.77;11.65;;;6.00;99.90;;;;;;5150479;27;20452;-72
2022/03/30 03:55:15;;;;;;;22.90;10.90;;;6.10;99.90;;;;;;5153210;27;20479;-73
2022/03/30 03:57:41;;;;;;;20.95;12.07;;;6.10;99.90;;;;;;5138589;27;20402;-72
2022/03/30 04:00:08;;;;;;;15.73;8.32;;;6.10;99.90;;;;;;5117434;27;20130;-72
2022/03/30 04:02:33;;;;;;;13.05;6.90;;;6.00;99.90;;;;;;5125680;27;20054;-72
2022/03/30 04:04:59;;;;;;;10.52;5.00;;;6.10;99.90;;;;;;5151225;27;20046;-72
2022/03/30 04:07:25;;;;;;;4.57;2.20;;;6.10;99.90;;;;;;5156460;27;20095;-72
2022/03/30 04:09:50;;;;;;;4.35;2.17;;;6.10;99.90;;;;;;5154867;27;20414;-72
2022/03/30 04:12:16;;;;;;;5.22;2.40;;;6.10;99.90;;;;;;5156380;27;20043;-72
2022/03/30 04:14:41;;;;;;;4.25;1.65;;;6.10;99.90;;;;;;5156881;27;20051;-72
2022/03/30 04:17:07;;;;;;;3.40;1.20;;;6.10;99.90;;;;;;5156477;27;20043;-72
2022/03/30 04:19:33;;;;;;;3.50;0.73;;;6.10;99.90;;;;;;5156586;27;20046;-72
2022/03/30 04:21:59;;;;;;;1.10;0.65;;;6.00;99.90;;;;;;5156691;27;20402;-73
2022/03/30 04:24:24;;;;;;;4.10;0.60;;;6.10;99.90;;;;;;5137616;27;20436;-72
2022/03/30 04:26:50;;;;;;;2.58;0.43;;;6.00;99.90;;;;;;5149782;27;20043;-72
2022/03/30 04:29:15;;;;;;;0.70;0.28;;;6.00;99.90;;;;;;5152433;27;20126;-73
2022/03/30 04:31:41;;;;;;;3.20;0.50;;;6.00;99.90;;;;;;5156356;27;20038;-72
2022/03/30 04:34:07;;;;;;;1.00;0.40;;;6.00;99.90;;;;;;5155893;27;20082;-77
2022/03/30 04:36:33;;;;;;;1.45;0.30;;;6.00;99.90;;;;;;5156414;27;20035;-73
2022/03/30 04:38:58;;;;;;;0.88;0.30;;;6.00;99.90;;;;;;5137982;27;20567;-72
2022/03/30 04:41:24;;;;;;;1.05;0.50;;;5.90;99.90;;;;;;5137305;27;20121;-72
2022/03/30 04:43:49;;;;;;;1.08;0.30;;;5.90;99.90;;;;;;5154469;27;20050;-72
2022/03/30 04:46:15;;;;;;;0.52;0.38;;;5.90;99.90;;;;;;5155759;27;20039;-72
2022/03/30 04:48:41;;;;;;;0.88;0.30;;;5.90;99.90;;;;;;5137597;27;20547;-72
2022/03/30 04:51:07;;;;;;;1.73;0.30;;;5.80;99.90;;;;;;5154837;27;20046;-72
2022/03/30 04:53:32;;;;;;;1.77;0.40;;;5.80;99.90;;;;;;5119087;27;20047;-75
2022/03/30 04:55:58;;;;;;;2.08;0.40;;;5.70;99.90;;;;;;5136468;27;20074;-73
2022/03/30 04:58:23;;;;;;;1.15;0.30;;;5.70;99.90;;;;;;5136346;27;20039;-72
2022/03/30 05:00:49;;;;;;;0.82;0.45;;;5.60;99.90;;;;;;5133869;27;20057;-72
2022/03/30 05:03:15;;;;;;;1.90;0.47;;;5.60;99.90;;;;;;5154667;27;20054;-72
2022/03/30 05:05:41;;;;;;;3.45;0.63;;;5.50;99.90;;;;;;5136802;27;20042;-72
2022/03/30 05:08:06;;;;;;;1.35;0.50;;;5.50;99.90;;;;;;5155441;27;20042;-77
2022/03/30 05:10:32;;;;;;;2.13;0.50;;;5.50;99.90;;;;;;5099178;27;20532;-73
2022/03/30 05:13:00;;;;;;;1.58;0.55;;;5.50;99.90;;;;;;5154518;27;20083;-72
2022/03/30 05:15:28;;;;;;;2.03;0.60;;;5.40;99.90;;;;;;5154904;27;20054;-72
2022/03/30 05:17:53;;;;;;;2.25;0.52;;;5.40;99.90;;;;;;5151957;27;20039;-72
2022/03/30 05:20:19;;;;;;;2.38;0.50;;;5.40;99.90;;;;;;5138515;27;20047;-72
2022/03/30 05:22:45;;;;;;;1.35;0.50;;;5.40;99.90;;;;;;5154430;27;20043;-71
2022/03/30 05:25:11;;;;;;;1.40;0.50;;;5.40;99.90;;;;;;5146976;27;20043;-72
2022/03/30 05:27:38;;;;;;;1.65;0.77;;;5.30;99.90;;;;;;5148936;27;20050;-72
2022/03/30 05:30:05;;;;;;;0.60;0.50;;;5.30;99.90;;;;;;5132072;27;20490;-72
2022/03/30 05:32:30;;;;;;;1.83;0.77;;;5.30;99.90;;;;;;5152854;27;20414;-72
2022/03/30 05:34:56;;;;;;;2.92;0.60;;;5.30;99.90;;;;;;5153486;27;20046;-72
2022/03/30 05:37:24;;;;;;;2.72;0.75;;;5.30;99.90;;;;;;5134531;27;20049;-72
2022/03/30 05:39:50;;;;;;;3.13;0.98;;;5.20;99.90;;;;;;5153190;27;20486;-72
2022/03/30 05:42:16;;;;;;;1.67;0.55;;;5.20;99.90;;;;;;5138439;27;20072;-75
2022/03/30 05:44:42;;;;;;;2.03;0.75;;;5.20;99.90;;;;;;5151566;27;20490;-72
2022/03/30 05:47:07;;;;;;;2.25;0.80;;;5.20;99.90;;;;;;5141226;27;20066;-71
2022/03/30 05:49:34;;;;;;;2.25;0.70;;;5.20;99.90;;;;;;5115159;27;20047;-72
2022/03/30 05:52:00;;;;;;;3.85;0.90;;;5.20;99.90;;;;;;5133925;27;20095;-72
2022/03/30 05:54:26;;;;;;;1.17;0.70;;;5.30;99.90;;;;;;5115537;27;20043;-72
2022/03/30 05:57:00;;;;;;;3.42;0.90;;;5.20;99.90;;;;;;5134156;27;20131;-71
2022/03/30 05:59:27;;;;;;;2.13;0.75;;;5.20;99.90;;;;;;5133879;27;20051;-72
2022/03/30 06:01:52;;;;;;;3.22;0.60;;;5.20;99.90;;;;;;5133721;27;20051;-71
2022/03/30 06:04:18;;;;;;;3.20;0.80;;;5.20;99.90;;;;;;5134056;27;20183;-71
2022/03/30 06:06:44;;;;;;;1.73;0.75;;;5.10;99.90;;;;;;5115909;27;20391;-72
2022/03/30 06:09:09;;;;;;;3.58;0.80;;;5.20;99.90;;;;;;5134128;27;20043;-72
2022/03/30 06:11:35;;;;;;;3.25;0.90;;;5.30;99.90;;;;;;5115253;27;20045;-71
2022/03/30 06:14:01;;;;;;;4.90;1.00;;;5.30;99.90;;;;;;5133881;27;20047;-73
2022/03/30 06:16:27;;;;;;;0.50;0.50;;;5.20;99.90;;;;;;5115243;27;20143;-72
2022/03/30 06:18:53;;;;;;;1.73;0.73;;;5.20;99.90;;;;;;5115658;27;20130;-71
2022/03/30 06:21:18;;;;;;;1.15;0.73;;;5.20;99.90;;;;;;5098530;27;20075;-72
2022/03/30 06:23:44;;;;;;;1.00;0.63;;;5.30;99.90;;;;;;5098207;28;20092;-72
2022/03/30 06:26:10;;;;;;;1.45;0.70;;;5.30;99.90;;;;;;5133828;27;20091;-72
2022/03/30 06:28:35;;;;;;;1.63;0.90;;;5.30;99.90;;;;;;5133297;27;20050;-71
2022/03/30 06:31:01;;;;;;;2.03;0.90;;;5.30;99.90;;;;;;5133714;27;20540;-73
2022/03/30 06:33:27;;;;;;;3.65;0.77;;;5.30;99.90;;;;;;5115036;28;20092;-72
2022/03/30 06:35:52;;;;;;;2.45;1.00;;;5.40;99.90;;;;;;5133648;27;20043;-72
2022/03/30 06:38:19;;;;;;;2.67;0.80;;;5.40;99.90;;;;;;5133541;28;20039;-72
2022/03/30 06:40:47;;;;;;;3.65;0.82;;;5.40;99.90;;;;;;5133279;28;20055;-71
2022/03/30 06:43:15;;;;;;;1.17;0.80;;;5.50;99.90;;;;;;5133505;28;20433;-71
2022/03/30 06:45:43;;;;;;;1.98;0.90;;;5.50;99.90;;;;;;5133148;28;20394;-71
2022/03/30 06:48:09;;;;;;;3.35;1.00;;;5.60;99.90;;;;;;5115573;28;20043;-71
2022/03/30 06:50:35;;;;;;;2.67;1.20;;;5.70;99.90;;;;;;5115078;28;20047;-72
2022/03/30 06:53:01;;;;;;;3.10;1.20;;;5.70;99.90;;;;;;5133466;28;20039;-72
2022/03/30 06:55:27;;;;;;;2.60;1.08;;;5.70;99.90;;;;;;5133104;28;20047;-72
2022/03/30 06:57:52;;;;;;;2.90;1.60;;;5.70;99.90;;;;;;5133314;28;20035;-72
2022/03/30 07:00:18;;;;;;;4.13;1.63;;;5.80;99.90;;;;;;5133162;28;20052;-71
2022/03/30 07:02:44;;;;;;;3.63;1.20;;;5.80;99.90;;;;;;5097756;28;20128;-71
2022/03/30 07:05:10;;;;;;;3.22;1.58;;;5.90;99.90;;;;;;5133447;28;20049;-72
2022/03/30 07:10:21;;;;;;;2.78;1.10;;;6.00;99.90;;;;;;5103548;28;20083;-72
2022/03/30 07:12:48;;;;;;;4.05;1.38;;;6.00;99.90;;;;;;5114861;28;20125;-71
2022/03/30 07:15:15;;;;;;;5.60;1.50;;;6.00;99.90;;;;;;5133366;28;20058;-72
2022/03/30 07:17:54;;;;;;;3.17;1.38;;;6.00;99.90;;;;;;5115010;27;20166;-72
2022/03/30 07:20:21;;;;;;;4.10;1.33;;;6.00;99.90;;;;;;5119524;27;20133;-72
2022/03/30 07:22:47;;;;;;;4.97;1.50;;;6.10;99.90;;;;;;5118639;27;20047;-72
2022/03/30 07:25:14;;;;;;;7.85;1.40;;;6.10;99.90;;;;;;5118842;27;20041;-72
2022/03/30 07:27:40;;;;;;;4.30;1.25;;;6.10;99.90;;;;;;5118438;27;20039;-72
2022/03/30 07:30:07;;;;;;;5.30;1.52;;;6.20;99.90;;;;;;5137087;27;20099;-72
2022/03/30 07:32:34;;;;;;;3.30;1.60;;;6.20;99.90;;;;;;5118518;27;20122;-72
2022/03/30 07:35:00;;;;;;;3.17;1.50;;;6.30;99.90;;;;;;5136926;27;20061;-72
2022/03/30 07:37:26;;;;;;;3.47;1.45;;;6.30;99.90;;;;;;5118743;27;20440;-72
2022/03/30 07:39:52;;;;;;;6.25;1.58;;;6.40;99.90;;;;;;5136129;27;20051;-72
2022/03/30 07:42:17;;;;;;;6.70;1.67;;;6.40;99.90;;;;;;5136766;27;20100;-72
2022/03/30 07:44:43;;;;;;;4.28;1.70;;;6.30;99.90;;;;;;5136324;27;20122;-72
2022/03/30 07:47:09;;;;;;;3.67;1.65;;;6.40;99.90;;;;;;5136753;27;20083;-72
2022/03/30 07:49:34;;;;;;;5.43;1.70;;;6.50;99.90;;;;;;5136385;27;20044;-72
2022/03/30 07:52:03;;;;;;;5.85;1.60;;;6.50;99.90;;;;;;5136735;27;20512;-72
2022/03/30 07:54:29;;;;;;;5.72;1.65;;;6.60;99.90;;;;;;5136646;27;20043;-72
2022/03/30 07:56:54;;;;;;;7.72;1.77;;;6.60;99.90;;;;;;5136157;27;20399;-72
2022/03/30 07:59:20;;;;;;;3.33;1.33;;;6.70;99.90;;;;;;5136485;27;20046;-72
2022/03/30 08:01:46;;;;;;;6.75;1.40;;;6.70;99.90;;;;;;5135633;27;20047;-72
2022/03/30 08:04:12;;;;;;;7.70;1.40;;;6.70;99.90;;;;;;5118263;27;20070;-72
2022/03/30 08:06:38;;;;;;;7.45;1.75;;;6.80;99.90;;;;;;5135932;27;20043;-72
2022/03/30 08:09:04;;;;;;;2.78;1.20;;;6.90;99.90;;;;;;5136407;27;20126;-72
2022/03/30 08:11:30;;;;;;;5.75;1.30;;;6.90;99.90;;;;;;5136400;27;20501;-73
2022/03/30 08:13:56;;;;;;;8.55;1.55;;;6.90;99.90;;;;;;5135815;27;20051;-72
2022/03/30 08:16:22;;;;;;;4.55;1.17;;;7.00;99.90;;;;;;5136158;27;20055;-72
2022/03/30 08:18:48;;;;;;;4.43;0.90;;;7.00;99.90;;;;;;5100347;27;20046;-72
2022/03/30 08:23:58;;;;;;;4.65;1.77;;;7.00;99.90;;;;;;5120225;27;20065;-72
2022/03/30 08:26:23;;;;;;;4.75;1.10;;;7.00;99.90;;;;;;5136125;27;20046;-72
2022/03/30 08:28:49;;;;;;;5.30;1.13;;;7.10;99.90;;;;;;5135034;27;20145;-72
2022/03/30 08:31:15;;;;;;;4.68;1.20;;;7.10;99.90;;;;;;5135166;27;20078;-72
2022/03/30 08:33:40;;;;;;;5.55;1.23;;;7.10;99.90;;;;;;5135367;27;20047;-72
2022/03/30 08:36:07;;;;;;;4.78;1.10;;;7.20;99.90;;;;;;5135919;27;20053;-72
2022/03/30 08:38:33;;;;;;;3.17;1.02;;;7.20;99.90;;;;;;5135663;27;20118;-72
2022/03/30 08:40:59;;;;;;;3.25;1.00;;;7.20;99.90;;;;;;5135332;27;20082;-72
2022/03/30 08:43:27;;;;;;;6.47;1.48;;;7.20;99.40;;;;;;5117343;27;20109;-72
2022/03/30 08:45:59;;;;;;;4.55;1.10;;;7.20;98.50;;;;;;5135213;27;20400;-72
2022/03/30 08:48:25;;;;;;;5.05;1.02;;;7.30;99.50;;;;;;5118224;27;20047;-72
2022/03/30 08:50:50;;;;;;;6.78;1.05;;;7.30;99.70;;;;;;5116828;27;20099;-72
2022/03/30 08:53:16;;;;;;;9.07;1.30;;;7.40;99.60;;;;;;5100161;27;20039;-72
2022/03/30 08:55:42;;;;;;;5.72;0.90;;;7.40;99.90;;;;;;5134769;27;20047;-76
2022/03/30 08:58:08;;;;;;;5.07;1.05;;;7.40;99.80;;;;;;5117129;27;20043;-72
2022/03/30 09:00:34;;;;;;;1.73;0.85;;;7.40;99.40;;;;;;5135030;27;20111;-72
2022/03/30 09:03:00;;;;;;;6.18;1.00;;;7.30;99.60;;;;;;5134766;27;20518;-72
2022/03/30 09:05:30;;;;;;;2.90;0.80;;;7.30;99.60;;;;;;5100156;27;20051;-72
2022/03/30 09:08:09;;;;;;;4.22;1.25;;;7.40;99.90;;;;;;5134735;27;20087;-72
2022/03/30 09:10:35;;;;;;;4.10;1.00;;;7.40;99.90;;;;;;5135117;27;20047;-72
2022/03/30 09:13:01;;;;;;;2.85;0.95;;;7.30;99.90;;;;;;5134584;27;20047;-72
2022/03/30 09:15:26;;;;;;;5.05;1.05;;;7.40;99.90;;;;;;5116821;27;20083;-72
2022/03/30 09:18:00;;;;;;;2.45;0.82;;;7.40;99.90;;;;;;5099227;27;20043;-72
2022/03/30 09:20:26;;;;;;;5.47;1.20;;;7.40;99.90;;;;;;5135036;27;20160;-72
2022/03/30 09:22:53;;;;;;;6.22;1.05;;;7.50;99.90;;;;;;5099234;27;20122;-72
2022/03/30 09:25:18;;;;;;;5.18;1.00;;;7.50;99.90;;;;;;5134909;27;20042;-72
2022/03/30 09:27:45;;;;;;;7.72;0.85;;;7.60;99.30;;;;;;5116829;27;20391;-72
2022/03/30 09:30:14;;;;;;;8.60;0.93;;;7.50;98.60;;;;;;5134696;27;20042;-72
2022/03/30 09:32:41;;;;;;;4.05;0.80;;;7.60;97.90;;;;;;5116642;27;20073;-72
2022/03/30 09:35:25;;;;;;;4.30;0.70;;;7.60;97.60;;;;;;5115911;27;20598;-72
2022/03/30 09:38:03;;;;;;;4.28;1.05;;;7.60;96.90;;;;;;5118267;27;20047;-72
2022/03/30 09:40:54;;;;;;;3.97;1.00;;;7.70;96.80;;;;;;5134433;27;20047;-72
2022/03/30 09:43:24;;;;;;;6.63;0.90;;;7.70;96.60;;;;;;5122777;27;20055;-72
2022/03/30 09:46:03;;;;;;;2.33;0.70;;;7.80;96.80;;;;;;5115839;27;20050;-72
2022/03/30 09:48:30;;;;;;;5.75;0.90;;;7.80;96.20;;;;;;5101284;27;20395;-72
2022/03/30 09:50:57;;;;;;;3.03;0.90;;;7.80;95.80;;;;;;5115677;27;20072;-72
2022/03/30 09:53:27;;;;;;;2.08;0.60;;;7.90;95.90;;;;;;5115941;27;20050;-72
2022/03/30 09:55:57;;;;;;;1.48;0.50;;;7.90;94.60;;;;;;5115641;27;20054;-72
2022/03/30 09:58:23;;;;;;;4.57;0.68;;;7.90;94.20;;;;;;5134069;27;20578;-72
2022/03/30 10:01:09;;;;;;;2.40;0.90;;;7.90;93.90;;;;;;5134202;27;20055;-72
2022/03/30 10:03:46;;;;;;;3.25;0.70;;;7.80;90.30;;;;;;5116622;27;20078;-72
2022/03/30 10:06:13;;;;;;;4.28;0.88;;;7.80;92.50;;;;;;5133820;27;20047;-72
2022/03/30 10:08:40;;;;;;;2.83;0.85;;;7.80;93.40;;;;;;5115706;27;20047;-72
2022/03/30 10:11:06;;;;;;;2.40;0.60;;;7.70;93.40;;;;;;5133635;27;20100;-72
2022/03/30 10:13:32;;;;;;;3.13;0.80;;;7.70;93.20;;;;;;5115755;27;20059;-73
2022/03/30 10:15:58;;;;;;;2.35;0.60;;;7.70;92.10;;;;;;5098579;27;20106;-72
2022/03/30 10:18:24;;;;;;;6.05;0.70;;;7.80;92.50;;;;;;5115749;27;20039;-72
2022/03/30 10:21:01;;;;;;;3.25;0.57;;;7.80;92.50;;;;;;5115653;27;20178;-72
2022/03/30 10:24:02;;;;;;;5.18;0.88;;;7.80;92.70;;;;;;5116971;27;20505;-72
2022/03/30 10:26:38;;;;;;;3.92;0.70;;;8.00;92.10;;;;;;5084607;27;20398;-72
2022/03/30 10:29:15;;;;;;;6.07;0.80;;;8.00;92.40;;;;;;5115180;27;20054;-72
2022/03/30 10:31:41;;;;;;;3.17;1.00;;;8.20;92.20;;;;;;5099343;28;20112;-72
2022/03/30 10:34:24;;;;;;;4.55;0.60;;;8.20;92.80;;;;;;5115038;27;20039;-72
2022/03/30 10:37:09;;;;;;;4.97;0.80;;;8.30;91.80;;;;;;5133334;27;20045;-72
2022/03/30 10:39:35;;;;;;;4.47;0.90;;;8.30;91.00;;;;;;5133433;28;20126;-72
2022/03/30 10:42:08;;;;;;;3.92;0.70;;;8.30;91.80;;;;;;5132719;28;20533;-72
2022/03/30 10:44:37;;;;;;;3.75;0.90;;;8.30;91.00;;;;;;5133469;28;20398;-72
2022/03/30 10:47:11;;;;;;;2.40;0.60;;;8.30;91.30;;;;;;5132934;28;20053;-73
2022/03/30 10:49:44;;;;;;;3.13;0.70;;;8.30;87.90;;;;;;5133680;28;20047;-72
2022/03/30 10:52:41;;;;;;;5.18;0.63;;;8.30;90.80;;;;;;5133077;27;20112;-72
2022/03/30 10:55:12;;;;;;;2.33;0.90;;;8.30;89.20;;;;;;5118882;27;20479;-72
2022/03/30 10:57:44;;;;;;;2.95;0.77;;;8.30;88.00;;;;;;5137615;27;20050;-72
2022/03/30 11:00:34;;;;;;;4.75;0.93;;;8.30;90.70;;;;;;5137025;27;20091;-72
2022/03/30 11:03:14;;;;;;;1.83;0.68;;;8.30;90.10;;;;;;5137226;27;20100;-73
2022/03/30 11:05:43;;;;;;;3.97;0.88;;;8.30;91.00;;;;;;5137717;27;20043;-72
2022/03/30 11:08:32;;;;;;;5.65;1.00;;;8.20;91.80;;;;;;5119075;27;20460;-72
2022/03/30 11:11:02;;;;;;;6.43;1.27;;;8.20;91.30;;;;;;5121263;27;20092;-72
2022/03/30 11:13:28;;;;;;;4.75;1.10;;;8.20;92.30;;;;;;5119694;27;20047;-72
2022/03/30 11:15:59;;;;;;;4.05;1.27;;;8.20;92.10;;;;;;5118975;27;20095;-72
2022/03/30 11:18:28;;;;;;;3.58;1.45;;;8.20;90.70;;;;;;5137017;27;20039;-72
2022/03/30 11:21:11;;;;;;;5.20;1.10;;;8.30;91.80;;;;;;5119018;27;20084;-72
2022/03/30 11:23:40;;;;;;;5.65;1.50;;;8.30;92.00;;;;;;5137104;27;20487;-72
2022/03/30 11:26:05;;;;;;;3.92;1.20;;;8.40;91.70;;;;;;5136779;27;20432;-72
2022/03/30 11:28:38;;;;;;;3.22;1.10;;;8.40;91.70;;;;;;5118882;27;20126;-71
2022/03/30 11:31:05;;;;;;;5.85;1.10;;;8.50;91.50;;;;;;5118309;27;20537;-75
2022/03/30 11:33:34;;;;;;;3.10;0.93;;;8.60;91.60;;;;;;5101920;27;20080;-74
2022/03/30 11:36:01;;;;;;;3.22;1.17;;;8.70;91.40;;;;;;5119122;27;20104;-75
2022/03/30 11:38:37;;;;;;;4.47;1.10;;;8.70;91.00;;;;;;5118364;27;20047;-74
2022/03/30 11:41:08;;;;;;;6.75;1.30;;;8.80;86.40;;;;;;5119120;27;20039;-74
2022/03/30 11:46:38;;;;;;;4.75;1.17;;;8.80;88.00;;;;;;5136434;27;20055;-73
2022/03/30 11:49:05;;;;;;;5.72;1.10;;;8.70;83.30;;;;;;5103785;27;20043;-72
2022/03/30 11:51:31;;;;;;;6.95;1.08;;;8.70;88.90;;;;;;5101651;27;20125;-73
2022/03/30 11:54:15;;;;;;;7.05;1.13;;;8.70;89.20;;;;;;5136819;27;20126;-73
2022/03/30 11:56:41;;;;;;;8.63;1.08;;;8.60;83.50;;;;;;5118218;27;20055;-75
2022/03/30 11:59:07;;;;;;;3.88;1.00;;;8.50;86.70;;;;;;5101236;27;20074;-74
2022/03/30 12:01:36;;;;;;;2.90;0.85;;;8.50;87.20;;;;;;5114694;28;20062;-74
2022/03/30 12:04:02;;;;;;;5.85;0.82;;;8.50;86.80;;;;;;5114602;28;20067;-74
2022/03/30 12:06:28;;;;;;;4.65;1.13;;;8.40;87.10;;;;;;5115560;28;20058;-74
2022/03/30 12:08:53;;;;;;;7.28;1.00;;;8.40;87.30;;;;;;5115769;28;20039;-74
2022/03/30 12:11:19;;;;;;;5.45;1.52;;;8.40;88.20;;;;;;5097213;28;20054;-73
2022/03/30 12:13:50;;;;;;;4.75;0.98;;;8.40;88.10;;;;;;5114628;28;20043;-73
2022/03/30 12:16:15;;;;;;;5.45;1.50;;;8.40;88.70;;;;;;5097614;28;20043;-73
2022/03/30 12:18:48;;;;;;;5.25;0.77;;;8.40;87.30;;;;;;5115537;28;20050;-73
2022/03/30 12:21:15;;;;;;;2.55;0.77;;;8.40;86.00;;;;;;5097565;28;20064;-73
2022/03/30 12:24:00;;;;;;;4.72;1.02;;;8.50;85.70;;;;;;5114342;28;20117;-73
2022/03/30 12:26:25;;;;;;;4.60;0.98;;;8.50;83.10;;;;;;5114169;28;20043;-73
2022/03/30 12:29:00;;;;;;;4.82;0.95;;;8.60;84.60;;;;;;5115473;27;20494;-73
2022/03/30 12:31:26;;;;;;;4.03;1.00;;;8.70;82.20;;;;;;5098082;28;20082;-73
2022/03/30 12:33:52;;;;;;;6.13;1.17;;;8.70;82.30;;;;;;5115199;28;20090;-73
2022/03/30 12:36:19;;;;;;;3.20;0.70;;;8.70;81.60;;;;;;5114649;28;20040;-73
2022/03/30 12:38:45;;;;;;;4.03;0.90;;;8.70;80.70;;;;;;5115228;28;20044;-73
2022/03/30 12:41:11;;;;;;;3.97;0.90;;;8.80;79.90;;;;;;5097146;28;20055;-73
2022/03/30 12:43:37;;;;;;;3.20;0.90;;;8.70;79.50;;;;;;5115177;28;20388;-73
2022/03/30 12:46:03;;;;;;;4.43;1.00;;;8.80;80.70;;;;;;5114993;28;20388;-74
2022/03/30 12:48:32;;;;;;;4.70;0.90;;;8.90;79.60;;;;;;5114525;28;20047;-74
2022/03/30 12:50:59;;;;;;;5.32;1.00;;;9.00;79.30;;;;;;5113906;28;20051;-73
2022/03/30 12:53:39;;;;;;;5.15;1.10;;;9.00;77.90;;;;;;5114584;28;20396;-73
2022/03/30 12:56:16;;;;;;;3.90;0.70;;;9.10;75.50;;;;;;5114721;28;20054;-72
2022/03/30 12:58:58;;;;;;;3.97;0.80;;;9.20;75.50;;;;;;5114804;28;20047;-73
2022/03/30 13:01:39;;;;;;;3.75;1.02;;;9.30;73.60;;;;;;5128309;27;20062;-73
2022/03/30 13:04:46;;;;;;;2.60;0.75;;;9.40;73.90;;;;;;5135299;27;20051;-73